Billings Logan International Airport
KBIL : now visible

Airfield :











YOU CAN JOIN US ON...

 
LOGIN :

Register | Disclaimer

   EN    FR    IT 

 









Legend :    VFR   Marginal VFR   IFR   Intensive IFR   Very Intensive IFR
Visi :
Ceiling :
>= 8 km
>= 3000ft
5 to 8 km
1000 to 3000 ft
1500m to 5 km
500 to 1000 ft
800 to 1500m
200 to 500 ft
< 800m
< 200 ft
Symbols :   Thunderstorms  Fog  Heavy snow  Heavy precipitations  Wind > 20 kt






- Airport Elevation : 3652 ft
- IATA code : BIL


KBIL - Billings Logan International

CURRENT METAR :
  • 112053Z VRB05KT 10SM FEW065 SCT100 32/03 A2986 RMK AO2 SLP072 T03170028 58015

EXPIRED METARs :
  • 111953Z 21007KT 10SM FEW065 FEW095 31/04 A2987 RMK AO2 SLP076 ACSL DSNT NE T03110044
  • 111853Z 20007KT 10SM FEW065 FEW095 30/07 A2989 RMK AO2 SLP080 ACC ACSL N-E T03000067

TAF KBIL
Valid from the 11 at 18:00 until the 12 at 18:00 UTC


111720Z 1118/1218 22008KT P6SM FEW090
FM112100 VRB06KT P6SM FEW090 SCT200
FM120900 23010KT P6SM FEW100
KZLC FIR / North America



MET'MAP, your aeronautical weather chart ! - Copyright ORBIFLY December 2007 - Disclaimer

ORBIFLY MET'MAP TEAM :

Programming & Development : Alexandra Zaïnal
Concept & original design : Baudouin d'Aumeries
Assistance for programming : Marc-Olivier Méhu
Technical & hardware support : Manuel Goepfert

Contact : metmap@orbifly.com




SOURCES & CREDITS :

   NOAA       Earth
Advisory